createdAt,value
2023-03-25T00:02:06.346Z,12
2023-03-25T00:04:36.903Z,8
2023-03-25T00:07:20.272Z,8
2023-03-25T00:09:50.971Z,9
2023-03-25T00:12:20.520Z,8
2023-03-25T00:14:51.049Z,8
2023-03-25T00:17:21.777Z,8
2023-03-25T00:19:52.610Z,8
2023-03-25T00:22:23.258Z,8
2023-03-25T00:24:53.552Z,11
2023-03-25T00:27:24.609Z,12
2023-03-25T00:29:58.141Z,12
2023-03-25T00:32:29.145Z,12
2023-03-25T00:35:00.244Z,12
2023-03-25T00:37:31.132Z,12
2023-03-25T00:40:01.573Z,12
2023-03-25T00:42:32.281Z,12
2023-03-25T00:45:00.936Z,12
2023-03-25T00:47:31.826Z,12
2023-03-25T00:50:03.700Z,12
2023-03-25T00:52:34.541Z,11
2023-03-25T00:55:04.845Z,12
2023-03-25T00:57:34.972Z,8
2023-03-25T01:00:05.246Z,12
2023-03-25T01:02:36.065Z,8
2023-03-25T01:05:06.344Z,8
2023-03-25T01:07:36.746Z,8
2023-03-25T01:10:07.805Z,12
2023-03-25T01:12:38.122Z,8
2023-03-25T01:15:08.997Z,8
2023-03-25T01:17:39.606Z,8
2023-03-25T01:20:10.119Z,12
2023-03-25T01:22:40.509Z,12
2023-03-25T01:25:09.493Z,16
2023-03-25T01:27:39.964Z,20
2023-03-25T01:30:10.075Z,20
2023-03-25T01:32:40.506Z,18
2023-03-25T01:35:10.748Z,20
2023-03-25T01:37:42.821Z,12
2023-03-25T01:40:13.448Z,16
2023-03-25T01:42:44.399Z,16
2023-03-25T01:45:14.683Z,20
2023-03-25T01:47:46.646Z,20
2023-03-25T01:50:16.925Z,16
2023-03-25T01:52:47.426Z,20
2023-03-25T01:55:17.870Z,19
2023-03-25T01:57:49.126Z,16
2023-03-25T02:00:19.892Z,20
2023-03-25T02:02:50.194Z,20
2023-03-25T02:05:21.130Z,16
2023-03-25T02:07:52.253Z,20
2023-03-25T02:10:23.023Z,19
2023-03-25T02:12:53.714Z,19
2023-03-25T02:15:24.264Z,16
2023-03-25T02:17:55.389Z,18
2023-03-25T02:20:26.275Z,20
2023-03-25T02:22:56.966Z,17
2023-03-25T02:25:27.120Z,20
2023-03-25T02:27:57.861Z,20
2023-03-25T02:30:28.778Z,20
2023-03-25T02:32:59.216Z,20
2023-03-25T02:35:30.051Z,17
2023-03-25T02:37:59.962Z,16
2023-03-25T02:40:30.237Z,20
2023-03-25T02:43:01.508Z,16
2023-03-25T02:45:32.606Z,16
2023-03-25T02:48:03.149Z,16
2023-03-25T02:50:33.971Z,16
2023-03-25T02:53:04.657Z,16
2023-03-25T02:55:35.519Z,16
2023-03-25T02:58:06.281Z,16
2023-03-25T03:00:36.818Z,20
2023-03-25T03:03:07.425Z,20
2023-03-25T03:05:35.802Z,20
2023-03-25T03:08:06.046Z,20
2023-03-25T03:10:37.171Z,16
2023-03-25T03:13:08.295Z,16
2023-03-25T03:15:38.672Z,20
2023-03-25T03:18:09.471Z,20
2023-03-25T03:20:39.920Z,16
2023-03-25T03:23:10.405Z,17
2023-03-25T03:25:41.410Z,16
2023-03-25T03:28:11.817Z,19
2023-03-25T03:30:42.244Z,16
2023-03-25T03:33:12.853Z,16
2023-03-25T03:35:43.295Z,16
2023-03-25T03:38:13.665Z,16
2023-03-25T03:40:43.814Z,16
2023-03-25T03:43:14.026Z,16
2023-03-25T03:45:44.877Z,16
2023-03-25T03:48:15.387Z,16
2023-03-25T03:50:45.832Z,13
2023-03-25T03:53:16.597Z,16
2023-03-25T03:55:47.247Z,16
2023-03-25T03:58:17.630Z,16
2023-03-25T04:00:47.918Z,15
2023-03-25T04:03:18.405Z,16
2023-03-25T04:05:48.914Z,12
2023-03-25T04:08:19.562Z,12
2023-03-25T04:10:50.144Z,16
2023-03-25T04:13:20.575Z,20
2023-03-25T04:15:53.488Z,20
2023-03-25T04:18:23.892Z,16
2023-03-25T04:20:54.429Z,16
2023-03-25T04:23:24.962Z,13
2023-03-25T04:25:55.237Z,12
2023-03-25T04:28:25.474Z,16
2023-03-25T04:30:55.988Z,16
2023-03-25T04:33:28.926Z,16
2023-03-25T04:35:59.852Z,16
2023-03-25T04:38:30.086Z,16
2023-03-25T04:41:00.791Z,20
2023-03-25T04:43:31.966Z,20
2023-03-25T04:46:06.243Z,16
2023-03-25T04:48:37.301Z,16
2023-03-25T04:51:07.792Z,15
2023-03-25T04:53:38.166Z,15
2023-03-25T04:56:08.391Z,16
2023-03-25T04:58:38.789Z,16
2023-03-25T05:01:09.062Z,18
2023-03-25T05:03:40.201Z,16
2023-03-25T05:06:10.869Z,16
2023-03-25T05:08:42.785Z,15
2023-03-25T05:11:13.010Z,14
2023-03-25T05:13:43.988Z,16
2023-03-25T05:16:14.046Z,12
2023-03-25T05:18:45.023Z,12
2023-03-25T05:21:15.584Z,16
2023-03-25T05:23:46.014Z,20
2023-03-25T05:26:16.595Z,16
2023-03-25T05:28:46.967Z,16
2023-03-25T05:31:17.144Z,16
2023-03-25T05:33:47.858Z,16
2023-03-25T05:36:18.944Z,13
2023-03-25T05:38:49.122Z,16
2023-03-25T05:41:19.316Z,16
2023-03-25T05:43:50.191Z,16
2023-03-25T05:46:20.619Z,16
2023-03-25T05:48:51.158Z,16
2023-03-25T05:51:22.197Z,16
2023-03-25T05:53:53.077Z,18
2023-03-25T05:56:23.707Z,12
2023-03-25T05:58:54.713Z,12
2023-03-25T06:03:57.589Z,16
2023-03-25T06:06:28.294Z,21
2023-03-25T06:08:58.641Z,16
2023-03-25T06:11:29.751Z,20
2023-03-25T06:14:00.838Z,20
2023-03-25T06:16:30.656Z,18
2023-03-25T06:19:00.846Z,20
2023-03-25T06:21:31.916Z,20
2023-03-25T06:24:02.683Z,20
2023-03-25T06:26:33.269Z,20
2023-03-25T06:29:04.202Z,20
2023-03-25T06:31:34.555Z,24
2023-03-25T06:34:05.032Z,20
2023-03-25T06:36:39.300Z,20
2023-03-25T06:39:09.916Z,20
2023-03-25T06:41:40.935Z,20
2023-03-25T06:44:11.159Z,22
2023-03-25T06:46:41.705Z,22
2023-03-25T06:49:12.294Z,24
2023-03-25T06:51:42.683Z,24
2023-03-25T06:54:13.302Z,24
2023-03-25T06:56:44.417Z,21
2023-03-25T06:59:15.831Z,24
2023-03-25T07:01:45.974Z,23
2023-03-25T07:04:16.999Z,24
2023-03-25T07:06:46.287Z,24
2023-03-25T07:09:16.458Z,25
2023-03-25T07:11:47.336Z,20
2023-03-25T07:14:17.462Z,24
2023-03-25T07:16:48.482Z,20
2023-03-25T07:19:19.235Z,20
2023-03-25T07:21:50.031Z,20
2023-03-25T07:24:20.378Z,22
2023-03-25T07:26:50.903Z,20
2023-03-25T07:29:21.468Z,20
2023-03-25T07:31:51.704Z,20
2023-03-25T07:34:22.391Z,20
2023-03-25T07:36:52.949Z,16
2023-03-25T07:39:23.304Z,16
2023-03-25T07:41:53.862Z,20
2023-03-25T07:44:24.239Z,20
2023-03-25T07:46:54.631Z,20
2023-03-25T07:49:24.982Z,20
2023-03-25T07:51:55.327Z,20
2023-03-25T07:54:26.098Z,20
2023-03-25T07:56:56.685Z,21
2023-03-25T07:59:28.810Z,20
2023-03-25T08:01:55.919Z,20
2023-03-25T08:04:26.412Z,22
2023-03-25T08:06:57.748Z,20
2023-03-25T08:09:29.513Z,20
2023-03-25T08:12:00.361Z,20
2023-03-25T08:14:30.944Z,20
2023-03-25T08:17:02.350Z,20
2023-03-25T08:19:33.046Z,16
2023-03-25T08:22:03.799Z,20
2023-03-25T08:24:34.186Z,20
2023-03-25T08:27:13.783Z,16
2023-03-25T08:29:35.546Z,16
2023-03-25T08:32:06.281Z,16
2023-03-25T08:34:37.613Z,16
2023-03-25T08:37:07.759Z,16
2023-03-25T08:39:38.230Z,15
2023-03-25T08:42:10.713Z,12
2023-03-25T08:44:41.869Z,12
2023-03-25T08:47:12.772Z,16
2023-03-25T08:49:43.659Z,13
2023-03-25T08:52:14.626Z,16
2023-03-25T08:54:44.751Z,13
2023-03-25T08:57:15.323Z,12
2023-03-25T08:59:46.101Z,12
2023-03-25T09:02:16.611Z,13
2023-03-25T09:04:47.602Z,16
2023-03-25T09:07:17.523Z,16
2023-03-25T09:09:47.996Z,17
2023-03-25T09:12:18.340Z,20
2023-03-25T09:14:48.926Z,12
2023-03-25T09:17:19.535Z,16
2023-03-25T09:19:51.645Z,16
2023-03-25T09:22:20.874Z,12
2023-03-25T09:24:51.283Z,12
2023-03-25T09:27:22.293Z,12
2023-03-25T09:29:53.125Z,12
2023-03-25T09:32:24.077Z,12
2023-03-25T09:34:54.528Z,12
2023-03-25T09:37:24.705Z,9
2023-03-25T09:39:56.161Z,11
2023-03-25T09:42:26.630Z,12
2023-03-25T09:44:56.980Z,12
2023-03-25T09:47:28.522Z,12
2023-03-25T09:50:00.701Z,12
2023-03-25T09:52:27.961Z,13
2023-03-25T09:54:59.110Z,12
2023-03-25T09:57:29.546Z,20
2023-03-25T09:59:59.781Z,12
2023-03-25T10:02:30.529Z,16
2023-03-25T10:05:01.617Z,12
2023-03-25T10:07:32.031Z,12
2023-03-25T10:10:02.260Z,16
2023-03-25T10:12:32.485Z,12
2023-03-25T10:15:02.815Z,12
2023-03-25T10:17:33.379Z,12
2023-03-25T10:20:03.528Z,9
2023-03-25T10:22:33.692Z,11
2023-03-25T10:25:04.168Z,12
2023-03-25T10:27:33.981Z,12
2023-03-25T10:30:04.260Z,12
2023-03-25T10:32:34.735Z,8
2023-03-25T10:35:05.369Z,12
2023-03-25T10:37:35.567Z,8
2023-03-25T10:40:04.245Z,12
2023-03-25T10:42:34.534Z,12
2023-03-25T10:45:05.012Z,8
2023-03-25T10:47:35.281Z,10
2023-03-25T10:50:05.433Z,8
2023-03-25T10:52:35.739Z,8
2023-03-25T10:55:05.922Z,8
2023-03-25T10:57:36.600Z,8
2023-03-25T11:00:06.812Z,8
2023-03-25T11:02:35.442Z,8
2023-03-25T11:05:06.641Z,4
2023-03-25T11:07:37.026Z,4
2023-03-25T11:10:08.795Z,4
2023-03-25T11:12:43.098Z,4
2023-03-25T11:15:09.839Z,4
2023-03-25T11:17:40.340Z,4
2023-03-25T11:20:10.729Z,4
2023-03-25T11:22:41.440Z,0
2023-03-25T11:25:11.870Z,0
2023-03-25T11:27:42.131Z,0
2023-03-25T11:30:12.446Z,0
2023-03-25T11:32:42.614Z,0
2023-03-25T11:35:12.885Z,0
2023-03-25T11:37:43.014Z,0
2023-03-25T11:40:12.983Z,0
2023-03-25T11:42:41.944Z,0
2023-03-25T11:45:12.150Z,0
2023-03-25T11:47:42.649Z,0
2023-03-25T11:50:12.969Z,2
2023-03-25T11:52:43.082Z,0
2023-03-25T11:55:13.579Z,0
2023-03-25T11:57:43.713Z,0
2023-03-25T12:00:16.673Z,2
2023-03-25T12:02:47.878Z,4
2023-03-25T12:05:18.141Z,4
2023-03-25T12:07:48.414Z,4
2023-03-25T12:10:18.868Z,4
2023-03-25T12:12:49.095Z,4
2023-03-25T12:15:19.300Z,4
2023-03-25T12:17:50.044Z,4
2023-03-25T12:20:20.192Z,4
2023-03-25T12:22:51.399Z,4
2023-03-25T12:25:21.420Z,4
2023-03-25T12:27:53.349Z,4
2023-03-25T12:30:22.493Z,4
2023-03-25T12:32:53.090Z,4
2023-03-25T12:35:23.718Z,4
2023-03-25T12:37:54.036Z,4
2023-03-25T12:40:24.998Z,4
2023-03-25T12:42:55.124Z,4
2023-03-25T12:45:25.550Z,3
2023-03-25T12:47:56.190Z,4
2023-03-25T12:50:27.240Z,0
2023-03-25T12:52:58.001Z,4
2023-03-25T12:55:26.838Z,4
2023-03-25T12:57:57.554Z,0
2023-03-25T13:00:27.608Z,3
2023-03-25T13:02:58.029Z,0
2023-03-25T13:05:28.266Z,0
2023-03-25T13:07:58.612Z,0
2023-03-25T13:10:29.058Z,0
2023-03-25T13:12:57.953Z,2
2023-03-25T13:15:28.792Z,0
2023-03-25T13:17:59.043Z,4
2023-03-25T13:20:29.604Z,0
2023-03-25T13:22:59.728Z,0
2023-03-25T13:25:29.624Z,0
2023-03-25T13:28:02.526Z,0
2023-03-25T13:30:32.926Z,0
2023-03-25T13:33:03.350Z,0
2023-03-25T13:35:33.808Z,0
2023-03-25T13:38:03.715Z,4
2023-03-25T13:40:34.302Z,2
2023-03-25T13:43:04.721Z,0
2023-03-25T13:45:35.006Z,0
2023-03-25T13:48:05.675Z,0
2023-03-25T13:50:35.872Z,0
2023-03-25T13:53:06.217Z,4
2023-03-25T13:55:36.466Z,12
2023-03-25T13:58:07.771Z,12
2023-03-25T14:00:38.206Z,2
2023-03-25T14:03:08.410Z,0
2023-03-25T14:05:38.834Z,4
2023-03-25T14:08:09.056Z,4
2023-03-25T14:10:39.678Z,0
2023-03-25T14:13:10.533Z,0
2023-03-25T14:15:40.506Z,4
2023-03-25T14:18:10.783Z,4
2023-03-25T14:20:41.915Z,9
2023-03-25T14:23:12.163Z,0
2023-03-25T14:25:42.431Z,0
2023-03-25T14:28:16.654Z,0
2023-03-25T14:30:47.585Z,0
2023-03-25T14:33:18.100Z,0
2023-03-25T14:35:48.335Z,4
2023-03-25T14:38:18.529Z,0
2023-03-25T14:41:01.924Z,0
2023-03-25T14:43:18.810Z,0
2023-03-25T14:45:49.540Z,0
2023-03-25T14:48:25.407Z,0
2023-03-25T14:50:51.017Z,0
2023-03-25T14:53:21.266Z,12
2023-03-25T14:55:52.066Z,8
2023-03-25T14:58:22.332Z,16
2023-03-25T15:00:52.605Z,5
2023-03-25T15:03:22.735Z,8
2023-03-25T15:05:52.882Z,14
2023-03-25T15:08:23.216Z,8
2023-03-25T15:10:54.068Z,0
2023-03-25T15:13:24.221Z,4
2023-03-25T15:15:55.018Z,4
2023-03-25T15:18:25.644Z,4
2023-03-25T15:20:55.882Z,4
2023-03-25T15:23:26.863Z,4
2023-03-25T15:25:56.923Z,0
2023-03-25T15:28:27.610Z,8
2023-03-25T15:30:58.406Z,5
2023-03-25T15:33:28.922Z,4
2023-03-25T15:35:59.182Z,0
2023-03-25T15:38:30.163Z,0
2023-03-25T15:41:01.649Z,6
2023-03-25T15:43:32.413Z,4
2023-03-25T15:46:02.479Z,12
2023-03-25T15:48:32.885Z,12
2023-03-25T15:51:02.925Z,0
2023-03-25T15:53:41.697Z,0
2023-03-25T15:56:02.087Z,0
2023-03-25T15:58:34.371Z,0
2023-03-25T16:01:06.716Z,0
2023-03-25T16:03:37.468Z,16
2023-03-25T16:06:09.953Z,8
2023-03-25T16:08:40.354Z,4
2023-03-25T16:11:10.566Z,10
2023-03-25T16:13:43.031Z,4
2023-03-25T16:16:14.546Z,4
2023-03-25T16:18:45.707Z,4
2023-03-25T16:21:15.892Z,4
2023-03-25T16:23:50.025Z,4
2023-03-25T16:26:20.129Z,8
2023-03-25T16:28:50.849Z,4
2023-03-25T16:31:21.232Z,8
2023-03-25T16:33:51.896Z,12
2023-03-25T16:36:22.712Z,19
2023-03-25T16:38:53.327Z,8
2023-03-25T16:41:24.397Z,6
2023-03-25T16:43:54.662Z,4
2023-03-25T16:46:25.150Z,4
2023-03-25T16:48:55.373Z,4
2023-03-25T16:51:25.685Z,4
2023-03-25T16:53:55.864Z,4
2023-03-25T16:56:26.242Z,4
2023-03-25T16:58:57.770Z,4
2023-03-25T17:01:27.777Z,4
2023-03-25T17:03:58.380Z,4
2023-03-25T17:06:28.990Z,4
2023-03-25T17:08:59.292Z,4
2023-03-25T17:11:30.609Z,4
2023-03-25T17:14:01.730Z,4
2023-03-25T17:16:31.826Z,4
2023-03-25T17:19:02.098Z,4
2023-03-25T17:21:32.764Z,4
2023-03-25T17:24:04.018Z,4
2023-03-25T17:26:34.651Z,8
2023-03-25T17:29:04.497Z,12
2023-03-25T17:31:35.210Z,8
2023-03-25T17:34:05.221Z,7
2023-03-25T17:36:35.404Z,4
2023-03-25T17:39:06.011Z,4
2023-03-25T17:41:36.049Z,7
2023-03-25T17:44:06.571Z,10
2023-03-25T17:46:36.812Z,8
2023-03-25T17:49:06.957Z,8
2023-03-25T17:51:37.272Z,8
2023-03-25T17:54:08.150Z,4
2023-03-25T17:56:39.788Z,15
2023-03-25T17:59:10.191Z,20
2023-03-25T18:01:40.412Z,13
2023-03-25T18:04:12.886Z,13
2023-03-25T18:06:41.806Z,28
2023-03-25T18:09:12.300Z,21
2023-03-25T18:11:42.343Z,20
2023-03-25T18:14:12.957Z,20
2023-03-25T18:16:43.046Z,24
2023-03-25T18:19:13.159Z,20
2023-03-25T18:21:45.346Z,20
2023-03-25T18:24:15.345Z,16
2023-03-25T18:26:45.706Z,20
2023-03-25T18:29:16.508Z,20
2023-03-25T18:31:46.765Z,17
2023-03-25T18:34:16.758Z,16
2023-03-25T18:36:47.155Z,20
2023-03-25T18:39:17.658Z,12
2023-03-25T18:41:49.736Z,16
2023-03-25T18:44:19.774Z,16
2023-03-25T18:46:50.703Z,20
2023-03-25T18:49:21.518Z,12
2023-03-25T18:51:52.103Z,12
2023-03-25T18:54:22.383Z,12
2023-03-25T18:56:53.018Z,10
2023-03-25T18:59:23.546Z,13
2023-03-25T19:01:56.096Z,16
2023-03-25T19:04:26.676Z,12
2023-03-25T19:06:57.010Z,13
2023-03-25T19:09:28.519Z,13
2023-03-25T19:11:58.613Z,15
2023-03-25T19:14:28.618Z,13
2023-03-25T19:17:03.876Z,15
2023-03-25T19:19:30.009Z,12
2023-03-25T19:22:00.160Z,12
2023-03-25T19:24:30.426Z,8
2023-03-25T19:27:00.881Z,15
2023-03-25T19:29:31.126Z,13
2023-03-25T19:32:04.621Z,20
2023-03-25T19:34:34.744Z,12
2023-03-25T19:37:04.939Z,15
2023-03-25T19:39:33.701Z,19
2023-03-25T19:42:03.697Z,20
2023-03-25T19:44:33.985Z,12
2023-03-25T19:47:04.313Z,17
2023-03-25T19:49:39.999Z,23
2023-03-25T19:52:04.986Z,12
2023-03-25T19:54:37.295Z,12
2023-03-25T19:57:07.592Z,15
2023-03-25T19:59:37.855Z,12
2023-03-25T20:02:08.862Z,12
2023-03-25T20:04:39.022Z,20
2023-03-25T20:07:09.002Z,12
2023-03-25T20:09:40.798Z,12
2023-03-25T20:12:09.773Z,16
2023-03-25T20:14:39.837Z,16
2023-03-25T20:17:09.722Z,16
2023-03-25T20:19:40.553Z,17
2023-03-25T20:22:24.042Z,20
2023-03-25T20:24:39.316Z,16
2023-03-25T20:27:09.353Z,16
2023-03-25T20:29:39.408Z,24
2023-03-25T20:32:09.424Z,24
2023-03-25T20:34:39.569Z,17
2023-03-25T20:37:08.184Z,16
2023-03-25T20:39:38.636Z,12
2023-03-25T20:42:10.779Z,12
2023-03-25T20:44:40.967Z,20
2023-03-25T20:47:12.541Z,16
2023-03-25T20:49:43.185Z,16
2023-03-25T20:52:13.405Z,10
2023-03-25T20:54:43.789Z,12
2023-03-25T20:57:14.128Z,12
2023-03-25T20:59:44.277Z,12
2023-03-25T21:02:15.439Z,12
2023-03-25T21:04:45.528Z,12
2023-03-25T21:07:15.202Z,12
2023-03-25T21:09:45.718Z,12
2023-03-25T21:12:15.432Z,10
2023-03-25T21:14:45.433Z,12
2023-03-25T21:17:15.525Z,8
2023-03-25T21:19:45.304Z,12
2023-03-25T21:22:15.597Z,9
2023-03-25T21:24:45.733Z,10
2023-03-25T21:27:15.484Z,12
2023-03-25T21:29:46.278Z,11
2023-03-25T21:32:14.850Z,12
2023-03-25T21:34:44.775Z,12
2023-03-25T21:37:15.170Z,12
2023-03-25T21:39:45.883Z,8
2023-03-25T21:42:17.281Z,11
2023-03-25T21:44:47.354Z,8
2023-03-25T21:47:18.168Z,9
2023-03-25T21:49:52.094Z,8
2023-03-25T21:52:22.162Z,12
2023-03-25T21:54:52.725Z,12
2023-03-25T21:57:23.920Z,12
2023-03-25T21:59:54.157Z,10
2023-03-25T22:02:24.962Z,12
2023-03-25T22:04:55.362Z,15
2023-03-25T22:07:25.538Z,12
2023-03-25T22:09:55.875Z,13
2023-03-25T22:12:24.679Z,12
2023-03-25T22:14:55.367Z,16
2023-03-25T22:17:26.202Z,16
2023-03-25T22:19:56.693Z,14
2023-03-25T22:22:26.684Z,16
2023-03-25T22:24:56.860Z,16
2023-03-25T22:27:26.884Z,13
2023-03-25T22:29:57.222Z,16
2023-03-25T22:32:27.576Z,14
2023-03-25T22:34:57.821Z,12
2023-03-25T22:37:28.430Z,14
2023-03-25T22:39:59.123Z,12
2023-03-25T22:42:29.504Z,14
2023-03-25T22:45:01.545Z,12
2023-03-25T22:47:32.631Z,11
2023-03-25T22:50:04.841Z,14
2023-03-25T22:52:35.078Z,12
2023-03-25T22:55:06.338Z,12
2023-03-25T22:57:36.872Z,12
2023-03-25T23:00:07.542Z,8
2023-03-25T23:02:38.664Z,16
2023-03-25T23:05:08.597Z,16
2023-03-25T23:07:38.715Z,16
2023-03-25T23:10:08.706Z,16
2023-03-25T23:12:39.554Z,13
2023-03-25T23:15:10.676Z,16
2023-03-25T23:17:41.910Z,16
2023-03-25T23:20:12.513Z,16
2023-03-25T23:22:42.703Z,16
2023-03-25T23:25:12.852Z,19
2023-03-25T23:27:43.056Z,16
2023-03-25T23:30:13.746Z,16
2023-03-25T23:32:44.067Z,17
2023-03-25T23:35:14.418Z,16
2023-03-25T23:37:44.599Z,20
2023-03-25T23:40:14.670Z,20
2023-03-25T23:42:45.327Z,18
2023-03-25T23:45:15.594Z,20
2023-03-25T23:47:45.784Z,16
2023-03-25T23:50:16.196Z,16
2023-03-25T23:52:46.495Z,16
2023-03-25T23:55:16.778Z,12
2023-03-25T23:57:47.563Z,12
